createdAt,value
2018-06-07T00:00:45.669Z,915.93
2018-06-07T00:03:24.817Z,841.20
2018-06-07T00:06:03.581Z,780.40
2018-06-07T00:08:42.700Z,698.63
2018-06-07T00:11:21.171Z,544.60
2018-06-07T00:14:00.434Z,547.53
2018-06-07T00:16:38.873Z,464.90
2018-06-07T00:19:18.273Z,471.93
2018-06-07T00:21:57.187Z,425.90
2018-06-07T00:24:38.135Z,443.83
2018-06-07T00:27:17.134Z,527.93
2018-06-07T00:29:57.535Z,455.77
2018-06-07T01:41:21.673Z,665.37
2018-06-07T01:43:59.556Z,733.50
2018-06-07T01:46:37.896Z,766.40
2018-06-07T01:49:18.996Z,818.10
2018-06-07T01:51:59.452Z,791.67
2018-06-07T01:54:39.516Z,793.87
2018-06-07T03:20:45.136Z,999.90
2018-06-07T03:23:23.459Z,999.90
2018-06-07T03:26:03.583Z,999.90
2018-06-07T03:28:40.134Z,999.90
2018-06-07T03:31:20.267Z,999.90
2018-06-07T03:33:57.135Z,999.90
2018-06-07T03:36:37.860Z,999.90
2018-06-07T03:39:18.467Z,999.90
2018-06-07T03:41:56.719Z,999.90
2018-06-07T03:44:36.938Z,999.90
2018-06-07T03:47:17.900Z,999.90
2018-06-07T03:49:56.647Z,999.90
2018-06-07T03:52:39.881Z,999.90
2018-06-07T05:21:47.179Z,999.90
2018-06-07T05:24:28.541Z,999.90
2018-06-07T05:27:10.364Z,999.90
2018-06-07T05:29:54.826Z,999.90
2018-06-07T05:32:36.768Z,999.90
2018-06-07T05:35:18.558Z,999.90
2018-06-07T05:37:59.260Z,999.90
2018-06-07T05:40:41.578Z,999.90
2018-06-07T05:43:20.520Z,999.90
2018-06-07T05:46:02.102Z,999.90
2018-06-07T05:48:41.747Z,999.90
2018-06-07T05:51:26.598Z,999.90
2018-06-07T05:54:05.419Z,999.90
2018-06-07T05:56:46.781Z,999.90
2018-06-07T05:59:28.404Z,999.90
2018-06-07T06:02:09.049Z,817.33
2018-06-07T06:04:48.660Z,603.03
2018-06-07T06:07:28.922Z,405.57
2018-06-07T06:10:10.619Z,543.43
2018-06-07T06:12:54.103Z,811.53
2018-06-07T06:15:36.541Z,753.47
2018-06-07T06:18:18.020Z,855.93
2018-06-07T06:20:59.505Z,535.90
2018-06-07T06:23:41.843Z,567.13
2018-06-07T06:26:24.076Z,905.23
2018-06-07T06:29:02.355Z,586.17
2018-06-07T06:31:40.199Z,999.90
2018-06-07T06:34:23.958Z,930.77
2018-06-07T06:37:04.381Z,700.00
2018-06-07T06:39:43.578Z,999.90
2018-06-07T06:42:23.317Z,999.90
2018-06-07T06:45:04.060Z,999.90
2018-06-07T06:47:44.161Z,999.90
2018-06-07T06:50:24.598Z,982.67
2018-06-07T06:53:07.882Z,999.90
2018-06-07T06:55:45.823Z,820.43
2018-06-07T06:58:26.345Z,758.87
2018-06-07T07:01:08.540Z,740.03
2018-06-07T08:30:06.758Z,398.57
2018-06-07T09:05:31.855Z,345.65
2018-06-07T09:08:13.619Z,326.40
2018-06-07T09:10:52.335Z,342.77
2018-06-07T09:13:33.093Z,392.55
2018-06-07T09:16:11.453Z,313.82
2018-06-07T09:18:51.543Z,290.20
2018-06-07T09:21:28.851Z,298.43
2018-06-07T09:24:06.632Z,244.10
2018-06-07T09:26:43.992Z,221.22
2018-06-07T09:29:26.800Z,316.98
2018-06-07T09:32:09.378Z,237.90
2018-06-07T09:34:50.283Z,206.32
2018-06-07T09:37:29.194Z,274.55
2018-06-07T09:40:09.156Z,275.38
2018-06-07T09:42:49.932Z,194.28
2018-06-07T09:45:29.996Z,190.97
2018-06-07T09:48:09.972Z,222.65
2018-06-07T09:50:46.992Z,192.18
2018-06-07T09:53:25.536Z,280.87
2018-06-07T09:56:07.555Z,206.75
2018-06-07T09:58:46.837Z,223.53
2018-06-07T10:01:27.252Z,184.82
2018-06-07T10:04:11.676Z,207.98
2018-06-07T10:06:54.190Z,191.05
2018-06-07T10:09:34.037Z,223.10
2018-06-07T10:12:14.955Z,261.80
2018-06-07T10:14:52.913Z,231.95
2018-06-07T10:17:31.135Z,272.85
2018-06-07T10:20:09.975Z,192.90
2018-06-07T10:22:48.920Z,204.60
2018-06-07T10:25:26.996Z,216.05
2018-06-07T10:28:10.691Z,173.80
2018-06-07T10:30:51.848Z,222.30
2018-06-07T11:48:21.119Z,226.15
2018-06-07T11:51:03.263Z,268.90
2018-06-07T11:53:43.138Z,293.60
2018-06-07T11:56:24.000Z,336.23
2018-06-07T11:59:05.228Z,330.55
2018-06-07T12:01:47.379Z,336.80
2018-06-07T12:04:30.584Z,341.05
2018-06-07T12:07:12.318Z,296.90
2018-06-07T12:09:51.167Z,293.15
2018-06-07T12:12:33.539Z,379.90
2018-06-07T12:15:14.940Z,329.30
2018-06-07T12:17:52.678Z,365.87
2018-06-07T12:20:31.259Z,353.27
2018-06-07T12:23:12.699Z,373.75
2018-06-07T12:25:51.523Z,376.75
2018-06-07T12:28:33.145Z,341.05
2018-06-07T12:31:18.701Z,316.68
2018-06-07T12:33:59.821Z,349.00
2018-06-07T12:36:38.698Z,296.73
2018-06-07T12:39:22.063Z,312.20
2018-06-07T12:42:02.563Z,277.43
2018-06-07T12:44:45.142Z,270.17
2018-06-07T12:47:22.241Z,226.42
2018-06-07T12:50:04.668Z,263.18
2018-06-07T12:52:46.784Z,326.00
2018-06-07T12:55:29.541Z,327.52
2018-06-07T12:58:11.023Z,308.65
2018-06-07T13:00:49.941Z,298.75
2018-06-07T13:03:33.920Z,239.23
2018-06-07T13:06:11.283Z,237.65
2018-06-07T13:08:49.458Z,204.60
2018-06-07T13:11:27.061Z,173.45
2018-06-07T13:14:09.218Z,138.47
2018-06-07T13:16:49.902Z,128.57
2018-06-07T13:19:27.663Z,147.13
2018-06-07T13:22:09.857Z,155.07
2018-06-07T13:24:52.957Z,178.97
2018-06-07T13:27:37.363Z,242.82
2018-06-07T13:30:15.950Z,178.10
2018-06-07T13:32:57.232Z,201.77
2018-06-07T13:35:42.199Z,168.57
2018-06-07T13:38:23.339Z,350.35
2018-06-07T13:41:07.023Z,365.30
2018-06-07T13:43:49.184Z,302.10
2018-06-07T13:46:35.519Z,511.05
2018-06-07T13:49:16.024Z,804.10
2018-06-07T13:51:57.782Z,999.90
2018-06-07T13:54:41.055Z,999.90
2018-06-07T13:57:20.203Z,999.90
2018-06-07T14:00:01.921Z,999.90
2018-06-07T14:02:44.021Z,999.90
2018-06-07T14:05:25.819Z,999.90
2018-06-07T14:08:05.685Z,999.90
2018-06-07T14:10:45.806Z,999.90
2018-06-07T14:13:28.001Z,999.90
2018-06-07T14:16:08.138Z,984.55
2018-06-07T14:18:51.524Z,558.00
2018-06-07T14:21:34.863Z,53.75
2018-06-07T14:24:21.316Z,52.67
2018-06-07T14:27:04.403Z,57.95
2018-06-07T14:29:42.458Z,101.45
2018-06-07T14:32:27.438Z,126.92
2018-06-07T14:35:10.558Z,59.42
2018-06-07T14:37:53.333Z,60.28
2018-06-07T14:40:35.933Z,71.77
2018-06-07T14:43:19.740Z,267.80
2018-06-07T14:46:04.003Z,540.73
2018-06-07T14:48:45.776Z,416.95
2018-06-07T14:51:24.099Z,272.95
2018-06-07T14:54:03.888Z,602.30
2018-06-07T14:56:44.222Z,933.27
2018-06-07T14:59:26.938Z,999.90
2018-06-07T15:02:08.940Z,999.90
2018-06-07T15:04:49.997Z,999.90
2018-06-07T15:07:27.702Z,999.90
2018-06-07T15:10:09.523Z,999.90
2018-06-07T15:12:47.263Z,44.33
2018-06-07T15:15:26.723Z,104.60
2018-06-07T15:18:12.662Z,319.50
2018-06-07T15:20:52.637Z,311.75
2018-06-07T15:23:30.642Z,294.35
2018-06-07T15:26:10.217Z,350.45
2018-06-07T15:28:47.762Z,327.65
2018-06-07T15:31:25.577Z,352.57
2018-06-07T15:34:03.081Z,313.40
2018-06-07T15:36:42.918Z,344.05
2018-06-07T15:39:21.299Z,258.90
2018-06-07T15:41:59.180Z,246.13
2018-06-07T15:44:41.382Z,277.65
2018-06-07T15:47:29.123Z,269.48
2018-06-07T15:50:08.165Z,244.75
2018-06-07T15:52:53.138Z,260.32
2018-06-07T15:55:31.377Z,311.77
2018-06-07T15:58:10.995Z,110.80
2018-06-07T16:00:52.802Z,81.25
2018-06-07T16:03:30.644Z,150.43
2018-06-07T16:06:12.656Z,424.15
2018-06-07T16:08:50.923Z,732.37
2018-06-07T16:11:33.536Z,798.90
2018-06-07T16:14:16.160Z,699.58
2018-06-07T16:17:00.258Z,805.00
2018-06-07T16:19:40.339Z,999.90
2018-06-07T16:22:18.717Z,999.90
2018-06-07T16:25:00.499Z,999.90
2018-06-07T16:27:46.756Z,999.90
2018-06-07T16:30:25.827Z,999.90
2018-06-07T16:33:09.181Z,999.90
2018-06-07T16:35:54.221Z,999.90
2018-06-07T16:38:40.183Z,999.90
2018-06-07T16:41:24.497Z,999.90
2018-06-07T16:44:09.100Z,662.67
2018-06-07T16:46:47.897Z,999.90
2018-06-07T16:49:28.549Z,999.90
2018-06-07T16:52:13.279Z,833.60
2018-06-07T16:54:55.936Z,713.57
2018-06-07T16:57:36.200Z,677.00
2018-06-07T17:00:21.189Z,633.13
2018-06-07T17:03:00.917Z,447.63
2018-06-07T17:05:43.997Z,458.03
2018-06-07T17:08:23.140Z,403.10
2018-06-07T17:11:04.339Z,473.10
2018-06-07T17:13:43.601Z,379.37
2018-06-07T17:16:29.338Z,342.30
2018-06-07T17:19:09.298Z,616.20
2018-06-07T17:21:50.337Z,806.03
2018-06-07T17:24:35.478Z,999.90
2018-06-07T17:27:16.740Z,999.90
2018-06-07T17:29:55.603Z,999.90
2018-06-07T17:32:37.187Z,999.90
2018-06-07T17:35:17.558Z,999.90
2018-06-07T17:37:59.240Z,999.90
2018-06-07T17:40:40.261Z,999.90
2018-06-07T17:43:22.958Z,999.90
2018-06-07T17:46:02.385Z,999.90
2018-06-07T17:48:43.541Z,999.90
2018-06-07T17:51:27.718Z,999.90
2018-06-07T17:54:09.648Z,999.90
2018-06-07T17:56:52.341Z,739.83
2018-06-07T17:59:34.464Z,345.07
2018-06-07T18:02:13.799Z,348.97
2018-06-07T18:04:53.394Z,456.80
2018-06-07T18:07:35.161Z,581.97
2018-06-07T18:10:16.088Z,505.47
2018-06-07T18:12:57.889Z,495.00
2018-06-07T18:15:39.490Z,465.23
2018-06-07T18:18:21.062Z,413.93
2018-06-07T18:21:01.841Z,368.53
2018-06-07T18:23:43.921Z,238.43
2018-06-07T18:26:25.761Z,325.47
2018-06-07T18:29:06.525Z,316.27
2018-06-07T18:31:49.959Z,327.33
2018-06-07T18:34:30.302Z,344.77
2018-06-07T18:37:10.660Z,434.07
2018-06-07T20:03:16.493Z,606.40
2018-06-07T20:05:57.795Z,778.40
2018-06-07T20:08:38.992Z,865.30
2018-06-07T20:11:20.456Z,966.80
2018-06-07T20:14:01.595Z,995.23
2018-06-07T20:16:42.190Z,999.90
2018-06-07T20:19:22.117Z,999.90
2018-06-07T20:22:04.451Z,999.90
2018-06-07T20:24:44.279Z,999.90
2018-06-07T20:27:26.195Z,999.90
2018-06-07T20:30:06.714Z,999.90
2018-06-07T20:32:48.937Z,999.90
2018-06-07T20:35:31.272Z,999.90
2018-06-07T20:38:09.516Z,999.90
2018-06-07T20:40:49.459Z,999.90
2018-06-07T20:43:29.052Z,999.90
2018-06-07T20:46:09.236Z,999.90
2018-06-07T20:48:51.073Z,999.90
2018-06-07T22:05:52.885Z,999.90
2018-06-07T22:33:38.078Z,999.90
2018-06-07T22:36:17.852Z,999.90
2018-06-07T22:38:57.193Z,999.90
2018-06-07T22:41:37.415Z,999.90
2018-06-07T22:44:17.895Z,999.90
2018-06-07T22:46:58.520Z,999.90
2018-06-07T22:49:37.549Z,999.90
2018-06-07T22:52:17.467Z,999.90
2018-06-07T22:54:57.615Z,999.90
2018-06-07T22:57:37.613Z,999.90
2018-06-07T23:00:17.734Z,999.90
2018-06-07T23:03:01.752Z,999.90
